KSMX/SMX METAR and TAF weather

Enter ICAO airport designator
Station Type Date Time Source
KSMX METAR 2020/09/18 22:51 UTC NOAA

KSMX 182251Z 30021G26KT 9SM BKN150 23/13 A2992 RMK AO2 PK WND 30026/2238 SLP133 T02330128


Station Type Date Time Source
KSMX Decoded METAR 2020/09/18 22:51 UTC NOAA

SANTA MARIA PUBLIC AIRPORT, CA, United States (KSMX) 34-54N 120-28W 74M
Sep 18, 2020 - 06:51 PM EDT / 2020.09.18 2251 UTC
Wind: from the WNW (300 degrees) at 24 MPH (21 KT) gusting to 30 MPH (26 KT):0
Visibility: 9 mile(s):0
Sky conditions: mostly cloudy
Temperature: 73.9 F (23.3 C)
Dew Point: 55.0 F (12.8 C)
Relative Humidity: 51%
Pressure (altimeter): 29.92 in. Hg (1013 hPa)
ob: KSMX 182251Z 30021G26KT 9SM BKN150 23/13 A2992 RMK AO2 PK WND 30026/2238 SLP133 T02330128
cycle: 23

Station Type Date Time Source
KSMX TAF 2020/09/18 21:58 UTC NOAA

TAF
AMD KSMX 182058Z 1821/1918 30015KT P6SM BKN150
FM190300 30006KT P6SM BKN150
FM190500 VRB03KT P6SM BKN006
FM190600 31008KT 4SM BR BKN004
FM191200 VRB05KT 1SM BR OVC002
FM191700 VRB05KT 3SM BR BKN005

Example: see airport list